Akogare — JPDL — position and weather

sailwx.info

Track history (hours):
 
Tides and Currents Weather Stations Pressure Air Temp Water Temp Dewpoint Dewpoint Depression Visibility Wind Speed Wind Dir Waves Ship Positions

Akogare (Japan)

Ship's website: http://www.akogare.or.jp/eng/top.html

Last reported at 2017-Mar-28 07:32 UTC. Time now 2017-Mar-28 08:19 UTC.
Position N 34°41' E 135°11'.

Length 52 m; draft 5.5 m.

Type: Sailing vessel. MMSI: 431005001.

Date/timePositionNaut miles runAvg speedWind from/ knotsBaromVisibWave heightAir tempDewpointWater temp
2017-Mar-28 07:32N 34°41' E 135°11'0 0.0
2017-Mar-28 06:20N 34°41' E 135°11'0 0.0
2017-Mar-28 05:32N 34°41' E 135°11'0 0.0
2017-Mar-28 04:26N 34°41' E 135°11'0 0.0
2017-Mar-28 03:32N 34°41' E 135°11'0 0.0
2017-Mar-28 02:26N 34°41' E 135°11'0 0.0
2017-Mar-28 01:32N 34°41' E 135°11'0 0.0
2017-Mar-28 00:32N 34°41' E 135°11'0 0.0
2017-Mar-27 23:32N 34°41' E 135°11'0 0.0
2017-Mar-27 22:32N 34°41' E 135°11'0 0.0
2017-Mar-27 21:32N 34°41' E 135°11'0 0.0
2017-Mar-27 20:32N 34°41' E 135°11'0 0.0
2017-Mar-27 19:32N 34°41' E 135°11'0 0.0
2017-Mar-27 18:20N 34°41' E 135°11'0 0.0
2017-Mar-27 17:32N 34°41' E 135°11'0 0.0
2017-Mar-27 16:32N 34°41' E 135°11'0 0.0
2017-Mar-27 15:32N 34°41' E 135°11'0 0.0
2017-Mar-27 14:32N 34°41' E 135°11'0 0.0
2017-Mar-27 13:32N 34°41' E 135°11'0 0.0
2017-Mar-27 12:32N 34°41' E 135°11'0 0.0
2017-Mar-27 11:32N 34°41' E 135°11'0 0.0
2017-Mar-27 10:32N 34°41' E 135°11'0 0.0
2017-Mar-27 09:32N 34°41' E 135°11'0 0.0
2017-Mar-27 08:32N 34°41' E 135°11'0 0.0
2017-Mar-27 07:26N 34°41' E 135°11'0 0.0
2017-Mar-27 06:27N 34°41' E 135°11'0 0.0
2017-Mar-27 05:21N 34°41' E 135°11'0 0.0
2017-Mar-27 04:30N 34°41' E 135°11'0 0.0
2017-Mar-27 03:30N 34°41' E 135°11'0 0.0
2017-Mar-27 02:30N 34°41' E 135°11'0 0.0
2017-Mar-27 01:24N 34°41' E 135°11'0 0.0
2017-Mar-27 00:30N 34°41' E 135°11'0 0.0
2017-Mar-26 23:30N 34°41' E 135°11'0 0.0
2017-Mar-26 22:30N 34°41' E 135°11'0 0.0
2017-Mar-26 21:12N 34°41' E 135°11'0 0.0
2017-Mar-26 20:30N 34°41' E 135°11'0 0.0
2017-Mar-26 19:30N 34°41' E 135°11'0 0.0
2017-Mar-26 18:12N 34°41' E 135°11'0 0.0
2017-Mar-26 17:30N 34°41' E 135°11'0 0.0
2017-Mar-26 16:24N 34°41' E 135°11'0 0.0
2017-Mar-26 15:30N 34°41' E 135°11'0 0.0
2017-Mar-26 14:12N 34°41' E 135°11'0 0.0
2017-Mar-26 13:30N 34°41' E 135°11'0 0.0
2017-Mar-26 12:30N 34°41' E 135°11'0 0.0
2017-Mar-26 11:30N 34°41' E 135°11'0 0.0
2017-Mar-26 10:30N 34°41' E 135°11'0 0.0
2017-Mar-26 09:30N 34°41' E 135°11'0 0.0
2017-Mar-26 08:30N 34°41' E 135°11'0 0.0
2017-Mar-26 07:30N 34°41' E 135°11'0 0.0
2017-Mar-26 06:33N 34°41' E 135°11'4 3.8
2017-Mar-26 05:33N 34°37' E 135°11'5 5.4
2017-Mar-26 04:33N 34°32' E 135°08'4 4.2
2017-Mar-26 03:31N 34°28' E 135°06'6 5.7
2017-Mar-26 02:27N 34°24' E 135°11'5 0.8
2017-Mar-25 20:33N 34°24' E 135°16'4 2.8
2017-Mar-25 19:11N 34°24' E 135°12'0 0.0
2017-Mar-25 13:29N 34°24' E 135°12'0 0.0
2017-Mar-25 12:29N 34°24' E 135°12'0 0.0
2017-Mar-25 11:29N 34°24' E 135°12'0 0.0
2017-Mar-25 09:29N 34°24' E 135°12'0 0.2
2017-Mar-25 06:29N 34°24' E 135°11'3 3.1
2017-Mar-25 05:32N 34°25' E 135°08'3 3.0
2017-Mar-25 04:33N 34°28' E 135°06'4 3.6
2017-Mar-25 03:32N 34°31' E 135°08'5 4.9
2017-Mar-25 02:33N 34°35' E 135°10'5 5.0
2017-Mar-25 01:33N 34°40' E 135°11'1 0.7
2017-Mar-25 00:24N 34°41' E 135°11'0 0.0
2017-Mar-24 23:13N 34°41' E 135°11'0 0.0
2017-Mar-24 22:31N 34°41' E 135°11'0 0.0
2017-Mar-24 21:31N 34°41' E 135°11'0 0.0
2017-Mar-24 20:25N 34°41' E 135°11'0 0.0
2017-Mar-24 19:31N 34°41' E 135°11'0 0.0
2017-Mar-24 18:31N 34°41' E 135°11'0 0.0
2017-Mar-24 17:31N 34°41' E 135°11'0 0.0
2017-Mar-24 16:31N 34°41' E 135°11'0 0.0
2017-Mar-24 15:31N 34°41' E 135°11'0 0.0
2017-Mar-24 14:31N 34°41' E 135°11'0 0.0
2017-Mar-24 13:25N 34°41' E 135°11'0 0.0
2017-Mar-24 12:13N 34°41' E 135°11'0 0.0
2017-Mar-24 11:31N 34°41' E 135°11'0 0.0
2017-Mar-24 10:31N 34°41' E 135°11'0 0.0
2017-Mar-24 09:31N 34°41' E 135°11'0 0.0
2017-Mar-24 08:31N 34°41' E 135°11'0 0.0
2017-Mar-24 07:31N 34°41' E 135°11'0 0.0
2017-Mar-24 06:31N 34°41' E 135°11'0 0.0
2017-Mar-24 05:25N 34°41' E 135°11'0 0.0
2017-Mar-24 04:31N 34°41' E 135°11'0 0.0
2017-Mar-24 03:31N 34°41' E 135°11'0 0.0
2017-Mar-24 02:31N 34°41' E 135°11'0 0.0
2017-Mar-24 01:31N 34°41' E 135°11'0 0.0
2017-Mar-24 00:31N 34°41' E 135°11'0 0.0
2017-Mar-23 23:25N 34°41' E 135°11'0 0.0
2017-Mar-23 22:31N 34°41' E 135°11'0 0.0
2017-Mar-23 21:31N 34°41' E 135°11'0 0.0
2017-Mar-23 20:31N 34°41' E 135°11'0 0.0
2017-Mar-23 19:31N 34°41' E 135°11'0 0.0
2017-Mar-23 18:31N 34°41' E 135°11'0 0.0
2017-Mar-23 17:31N 34°41' E 135°11'0 0.0
2017-Mar-23 16:31N 34°41' E 135°11'0 0.0
2017-Mar-23 15:25N 34°41' E 135°11'0 0.0
2017-Mar-23 14:31N 34°41' E 135°11'0 0.0
2017-Mar-23 13:31N 34°41' E 135°11'0 0.0
2017-Mar-23 12:31N 34°41' E 135°11'0 0.0
2017-Mar-23 11:31N 34°41' E 135°11'0 0.0
2017-Mar-23 10:25N 34°41' E 135°11'0 0.0
2017-Mar-23 09:25N 34°41' E 135°11'0 0.0
2017-Mar-23 08:19N 34°41' E 135°11'0 0.0
2017-Mar-23 07:31N 34°41' E 135°11'0 0.0
2017-Mar-23 06:31N 34°41' E 135°11'0 0.0
2017-Mar-23 05:25N 34°41' E 135°11'0 0.0
2017-Mar-23 04:31N 34°41' E 135°11'0 0.0
2017-Mar-23 03:31N 34°41' E 135°11'0 0.0
2017-Mar-23 02:31N 34°41' E 135°11'0 0.0
2017-Mar-23 01:19N 34°41' E 135°11'0 0.0
2017-Mar-23 00:31N 34°41' E 135°11'0 0.0
2017-Mar-22 23:31N 34°41' E 135°11'0 0.0
2017-Mar-22 22:31N 34°41' E 135°11'0 0.0
2017-Mar-22 21:31N 34°41' E 135°11'0 0.0
2017-Mar-22 20:19N 34°41' E 135°11'0 0.0
2017-Mar-22 19:31N 34°41' E 135°11'0 0.0
2017-Mar-22 18:31N 34°41' E 135°11'0 0.0
2017-Mar-22 17:31N 34°41' E 135°11'0 0.0
2017-Mar-22 16:25N 34°41' E 135°11'0 0.0
2017-Mar-22 15:31N 34°41' E 135°11'0 0.0
2017-Mar-22 14:25N 34°41' E 135°11'0 0.0
2017-Mar-22 13:31N 34°41' E 135°11'0 0.0
2017-Mar-22 12:31N 34°41' E 135°11'0 0.0
2017-Mar-22 11:31N 34°41' E 135°11'0 0.0
2017-Mar-22 10:31N 34°41' E 135°11'0 0.0
2017-Mar-22 09:31N 34°41' E 135°11'0 0.0
2017-Mar-22 08:31N 34°41' E 135°11'0 0.0
2017-Mar-22 07:25N 34°41' E 135°11'0 0.0
2017-Mar-22 06:25N 34°41' E 135°11'0 0.0
2017-Mar-22 05:31N 34°41' E 135°11'0 0.0
2017-Mar-22 04:31N 34°41' E 135°11'0 0.0
2017-Mar-22 03:31N 34°41' E 135°11'0 0.0
2017-Mar-22 02:25N 34°41' E 135°11'0 0.0
2017-Mar-22 01:19N 34°41' E 135°11'0 0.0
2017-Mar-22 00:25N 34°41' E 135°11'0 0.0
2017-Mar-21 23:31N 34°41' E 135°11'0 0.0
2017-Mar-21 21:25N 34°41' E 135°11'0 0.0
2017-Mar-21 20:25N 34°41' E 135°11'0 0.0
2017-Mar-21 19:31N 34°41' E 135°11'0 0.0
2017-Mar-21 18:31N 34°41' E 135°11'0 0.0
2017-Mar-21 17:25N 34°41' E 135°11'0 0.0
2017-Mar-21 16:31N 34°41' E 135°11'0 0.0
2017-Mar-21 15:31N 34°41' E 135°11'0 0.0
2017-Mar-21 14:31N 34°41' E 135°11'0 0.0
2017-Mar-21 13:31N 34°41' E 135°11'0 0.0
2017-Mar-21 12:31N 34°41' E 135°11'0 0.0
2017-Mar-21 11:31N 34°41' E 135°11'0 0.0
2017-Mar-21 10:31N 34°41' E 135°11'0 0.0
2017-Mar-21 09:31N 34°41' E 135°11'0 0.0
2017-Mar-21 08:31N 34°41' E 135°11'0 0.0
2017-Mar-21 07:31N 34°41' E 135°11'0 0.0
2017-Mar-21 06:31N 34°41' E 135°11'0 0.0
2017-Mar-21 05:31N 34°41' E 135°11'0 0.0
2017-Mar-21 04:19N 34°41' E 135°11'0 0.0
2017-Mar-21 03:31N 34°41' E 135°11'0 0.0
2017-Mar-21 02:31N 34°41' E 135°11'0 0.0
2017-Mar-21 01:19N 34°41' E 135°11'0 0.0
2017-Mar-21 00:31N 34°41' E 135°11'0 0.0
2017-Mar-20 23:25N 34°41' E 135°11'0 0.0
2017-Mar-20 22:31N 34°41' E 135°11'0 0.0
2017-Mar-20 21:31N 34°41' E 135°11'0 0.0
2017-Mar-20 20:25N 34°41' E 135°11'0 0.0
2017-Mar-20 19:31N 34°41' E 135°11'0 0.0
2017-Mar-20 18:31N 34°41' E 135°11'0 0.0
2017-Mar-20 17:31N 34°41' E 135°11'0 0.0
2017-Mar-20 16:31N 34°41' E 135°11'0 0.0
2017-Mar-20 15:31N 34°41' E 135°11'0 0.0
2017-Mar-20 14:25N 34°41' E 135°11'0 0.0
2017-Mar-20 13:31N 34°41' E 135°11'0 0.0
2017-Mar-20 12:31N 34°41' E 135°11'0 0.0
2017-Mar-20 11:31N 34°41' E 135°11'0 0.0
2017-Mar-20 10:25N 34°41' E 135°11'0 0.0
2017-Mar-20 09:25N 34°41' E 135°11'0 0.0
2017-Mar-20 08:31N 34°41' E 135°11'0 0.0
2017-Mar-20 07:31N 34°41' E 135°11'0 0.1
2017-Mar-20 06:33N 34°41' E 135°11'4 4.1
2017-Mar-20 05:33N 34°37' E 135°10'2 2.1
2017-Mar-20 04:33N 34°35' E 135°09'1 0.8
2017-Mar-20 03:33N 34°34' E 135°09'1 1.4
2017-Mar-20 02:29N 34°33' E 135°08'2 1.7
2017-Mar-20 01:32N 34°31' E 135°08'2 1.7
2017-Mar-20 00:33N 34°30' E 135°07'2 1.6
2017-Mar-19 23:33N 34°28' E 135°06'4 1.7
2017-Mar-19 21:27N 34°25' E 135°05'10 2.0
2017-Mar-19 16:26N 34°16' E 134°59'4 5.0
2017-Mar-19 15:33N 34°12' E 134°60'4 3.2
2017-Mar-19 14:24N 34°08' E 134°59'  
Track history (hours):
 
Tides and Currents Weather Stations Pressure Air Temp Water Temp Dewpoint Dewpoint Depression Visibility Wind Speed Wind Dir Waves Ship Positions

Akogare (Japan)

Ship's website: http://www.akogare.or.jp/eng/top.html

Last reported at 2017-Mar-28 07:32 UTC. Time now 2017-Mar-28 08:19 UTC.
Position N 34°41' E 135°11'.

Length 52 m; draft 5.5 m.

Type: Sailing vessel. MMSI: 431005001.

Date/timePositionNaut miles runAvg speedWind from/ knotsBaromVisibWave heightAir tempDewpointWater temp
2017-Mar-28 07:32N 34°41' E 135°11'0 0.0
2017-Mar-28 06:20N 34°41' E 135°11'0 0.0
2017-Mar-28 05:32N 34°41' E 135°11'0 0.0
2017-Mar-28 04:26N 34°41' E 135°11'0 0.0
2017-Mar-28 03:32N 34°41' E 135°11'0 0.0
2017-Mar-28 02:26N 34°41' E 135°11'0 0.0
2017-Mar-28 01:32N 34°41' E 135°11'0 0.0
2017-Mar-28 00:32N 34°41' E 135°11'0 0.0
2017-Mar-27 23:32N 34°41' E 135°11'0 0.0
2017-Mar-27 22:32N 34°41' E 135°11'0 0.0
2017-Mar-27 21:32N 34°41' E 135°11'0 0.0
2017-Mar-27 20:32N 34°41' E 135°11'0 0.0
2017-Mar-27 19:32N 34°41' E 135°11'0 0.0
2017-Mar-27 18:20N 34°41' E 135°11'0 0.0
2017-Mar-27 17:32N 34°41' E 135°11'0 0.0
2017-Mar-27 16:32N 34°41' E 135°11'0 0.0
2017-Mar-27 15:32N 34°41' E 135°11'0 0.0
2017-Mar-27 14:32N 34°41' E 135°11'0 0.0
2017-Mar-27 13:32N 34°41' E 135°11'0 0.0
2017-Mar-27 12:32N 34°41' E 135°11'0 0.0
2017-Mar-27 11:32N 34°41' E 135°11'0 0.0
2017-Mar-27 10:32N 34°41' E 135°11'0 0.0
2017-Mar-27 09:32N 34°41' E 135°11'0 0.0
2017-Mar-27 08:32N 34°41' E 135°11'0 0.0
2017-Mar-27 07:26N 34°41' E 135°11'0 0.0
2017-Mar-27 06:27N 34°41' E 135°11'0 0.0
2017-Mar-27 05:21N 34°41' E 135°11'0 0.0
2017-Mar-27 04:30N 34°41' E 135°11'0 0.0
2017-Mar-27 03:30N 34°41' E 135°11'0 0.0
2017-Mar-27 02:30N 34°41' E 135°11'0 0.0
2017-Mar-27 01:24N 34°41' E 135°11'0 0.0
2017-Mar-27 00:30N 34°41' E 135°11'0 0.0
2017-Mar-26 23:30N 34°41' E 135°11'0 0.0
2017-Mar-26 22:30N 34°41' E 135°11'0 0.0
2017-Mar-26 21:12N 34°41' E 135°11'0 0.0
2017-Mar-26 20:30N 34°41' E 135°11'0 0.0
2017-Mar-26 19:30N 34°41' E 135°11'0 0.0
2017-Mar-26 18:12N 34°41' E 135°11'0 0.0
2017-Mar-26 17:30N 34°41' E 135°11'0 0.0
2017-Mar-26 16:24N 34°41' E 135°11'0 0.0
2017-Mar-26 15:30N 34°41' E 135°11'0 0.0
2017-Mar-26 14:12N 34°41' E 135°11'0 0.0
2017-Mar-26 13:30N 34°41' E 135°11'0 0.0
2017-Mar-26 12:30N 34°41' E 135°11'0 0.0
2017-Mar-26 11:30N 34°41' E 135°11'0 0.0
2017-Mar-26 10:30N 34°41' E 135°11'0 0.0
2017-Mar-26 09:30N 34°41' E 135°11'0 0.0
2017-Mar-26 08:30N 34°41' E 135°11'0 0.0
2017-Mar-26 07:30N 34°41' E 135°11'0 0.0
2017-Mar-26 06:33N 34°41' E 135°11'4 3.8
2017-Mar-26 05:33N 34°37' E 135°11'5 5.4
2017-Mar-26 04:33N 34°32' E 135°08'4 4.2
2017-Mar-26 03:31N 34°28' E 135°06'6 5.7
2017-Mar-26 02:27N 34°24' E 135°11'5 0.8
2017-Mar-25 20:33N 34°24' E 135°16'4 2.8
2017-Mar-25 19:11N 34°24' E 135°12'0 0.0
2017-Mar-25 13:29N 34°24' E 135°12'0 0.0
2017-Mar-25 12:29N 34°24' E 135°12'0 0.0
2017-Mar-25 11:29N 34°24' E 135°12'0 0.0
2017-Mar-25 09:29N 34°24' E 135°12'0 0.2
2017-Mar-25 06:29N 34°24' E 135°11'3 3.1
2017-Mar-25 05:32N 34°25' E 135°08'3 3.0
2017-Mar-25 04:33N 34°28' E 135°06'4 3.6
2017-Mar-25 03:32N 34°31' E 135°08'5 4.9
2017-Mar-25 02:33N 34°35' E 135°10'5 5.0
2017-Mar-25 01:33N 34°40' E 135°11'1 0.7
2017-Mar-25 00:24N 34°41' E 135°11'0 0.0
2017-Mar-24 23:13N 34°41' E 135°11'0 0.0
2017-Mar-24 22:31N 34°41' E 135°11'0 0.0
2017-Mar-24 21:31N 34°41' E 135°11'0 0.0
2017-Mar-24 20:25N 34°41' E 135°11'0 0.0
2017-Mar-24 19:31N 34°41' E 135°11'0 0.0
2017-Mar-24 18:31N 34°41' E 135°11'0 0.0
2017-Mar-24 17:31N 34°41' E 135°11'0 0.0
2017-Mar-24 16:31N 34°41' E 135°11'0 0.0
2017-Mar-24 15:31N 34°41' E 135°11'0 0.0
2017-Mar-24 14:31N 34°41' E 135°11'0 0.0
2017-Mar-24 13:25N 34°41' E 135°11'0 0.0
2017-Mar-24 12:13N 34°41' E 135°11'0 0.0
2017-Mar-24 11:31N 34°41' E 135°11'0 0.0
2017-Mar-24 10:31N 34°41' E 135°11'0 0.0
2017-Mar-24 09:31N 34°41' E 135°11'0 0.0
2017-Mar-24 08:31N 34°41' E 135°11'0 0.0
2017-Mar-24 07:31N 34°41' E 135°11'0 0.0
2017-Mar-24 06:31N 34°41' E 135°11'0 0.0
2017-Mar-24 05:25N 34°41' E 135°11'0 0.0
2017-Mar-24 04:31N 34°41' E 135°11'0 0.0
2017-Mar-24 03:31N 34°41' E 135°11'0 0.0
2017-Mar-24 02:31N 34°41' E 135°11'0 0.0
2017-Mar-24 01:31N 34°41' E 135°11'0 0.0
2017-Mar-24 00:31N 34°41' E 135°11'0 0.0
2017-Mar-23 23:25N 34°41' E 135°11'0 0.0
2017-Mar-23 22:31N 34°41' E 135°11'0 0.0
2017-Mar-23 21:31N 34°41' E 135°11'0 0.0
2017-Mar-23 20:31N 34°41' E 135°11'0 0.0
2017-Mar-23 19:31N 34°41' E 135°11'0 0.0
2017-Mar-23 18:31N 34°41' E 135°11'0 0.0
2017-Mar-23 17:31N 34°41' E 135°11'0 0.0
2017-Mar-23 16:31N 34°41' E 135°11'0 0.0
2017-Mar-23 15:25N 34°41' E 135°11'0 0.0
2017-Mar-23 14:31N 34°41' E 135°11'0 0.0
2017-Mar-23 13:31N 34°41' E 135°11'0 0.0
2017-Mar-23 12:31N 34°41' E 135°11'0 0.0
2017-Mar-23 11:31N 34°41' E 135°11'0 0.0
2017-Mar-23 10:25N 34°41' E 135°11'0 0.0
2017-Mar-23 09:25N 34°41' E 135°11'0 0.0
2017-Mar-23 08:19N 34°41' E 135°11'0 0.0
2017-Mar-23 07:31N 34°41' E 135°11'0 0.0
2017-Mar-23 06:31N 34°41' E 135°11'0 0.0
2017-Mar-23 05:25N 34°41' E 135°11'0 0.0
2017-Mar-23 04:31N 34°41' E 135°11'0 0.0
2017-Mar-23 03:31N 34°41' E 135°11'0 0.0
2017-Mar-23 02:31N 34°41' E 135°11'0 0.0
2017-Mar-23 01:19N 34°41' E 135°11'0 0.0
2017-Mar-23 00:31N 34°41' E 135°11'0 0.0
2017-Mar-22 23:31N 34°41' E 135°11'0 0.0
2017-Mar-22 22:31N 34°41' E 135°11'0 0.0
2017-Mar-22 21:31N 34°41' E 135°11'0 0.0
2017-Mar-22 20:19N 34°41' E 135°11'0 0.0
2017-Mar-22 19:31N 34°41' E 135°11'0 0.0
2017-Mar-22 18:31N 34°41' E 135°11'0 0.0
2017-Mar-22 17:31N 34°41' E 135°11'0 0.0
2017-Mar-22 16:25N 34°41' E 135°11'0 0.0
2017-Mar-22 15:31N 34°41' E 135°11'0 0.0
2017-Mar-22 14:25N 34°41' E 135°11'0 0.0
2017-Mar-22 13:31N 34°41' E 135°11'0 0.0
2017-Mar-22 12:31N 34°41' E 135°11'0 0.0
2017-Mar-22 11:31N 34°41' E 135°11'0 0.0
2017-Mar-22 10:31N 34°41' E 135°11'0 0.0
2017-Mar-22 09:31N 34°41' E 135°11'0 0.0
2017-Mar-22 08:31N 34°41' E 135°11'0 0.0
2017-Mar-22 07:25N 34°41' E 135°11'0 0.0
2017-Mar-22 06:25N 34°41' E 135°11'0 0.0
2017-Mar-22 05:31N 34°41' E 135°11'0 0.0
2017-Mar-22 04:31N 34°41' E 135°11'0 0.0
2017-Mar-22 03:31N 34°41' E 135°11'0 0.0
2017-Mar-22 02:25N 34°41' E 135°11'0 0.0
2017-Mar-22 01:19N 34°41' E 135°11'0 0.0
2017-Mar-22 00:25N 34°41' E 135°11'0 0.0
2017-Mar-21 23:31N 34°41' E 135°11'0 0.0
2017-Mar-21 21:25N 34°41' E 135°11'0 0.0
2017-Mar-21 20:25N 34°41' E 135°11'0 0.0
2017-Mar-21 19:31N 34°41' E 135°11'0 0.0
2017-Mar-21 18:31N 34°41' E 135°11'0 0.0
2017-Mar-21 17:25N 34°41' E 135°11'0 0.0
2017-Mar-21 16:31N 34°41' E 135°11'0 0.0
2017-Mar-21 15:31N 34°41' E 135°11'0 0.0
2017-Mar-21 14:31N 34°41' E 135°11'0 0.0
2017-Mar-21 13:31N 34°41' E 135°11'0 0.0
2017-Mar-21 12:31N 34°41' E 135°11'0 0.0
2017-Mar-21 11:31N 34°41' E 135°11'0 0.0
2017-Mar-21 10:31N 34°41' E 135°11'0 0.0
2017-Mar-21 09:31N 34°41' E 135°11'0 0.0
2017-Mar-21 08:31N 34°41' E 135°11'0 0.0
2017-Mar-21 07:31N 34°41' E 135°11'0 0.0
2017-Mar-21 06:31N 34°41' E 135°11'0 0.0
2017-Mar-21 05:31N 34°41' E 135°11'0 0.0
2017-Mar-21 04:19N 34°41' E 135°11'0 0.0
2017-Mar-21 03:31N 34°41' E 135°11'0 0.0
2017-Mar-21 02:31N 34°41' E 135°11'0 0.0
2017-Mar-21 01:19N 34°41' E 135°11'0 0.0
2017-Mar-21 00:31N 34°41' E 135°11'0 0.0
2017-Mar-20 23:25N 34°41' E 135°11'0 0.0
2017-Mar-20 22:31N 34°41' E 135°11'0 0.0
2017-Mar-20 21:31N 34°41' E 135°11'0 0.0
2017-Mar-20 20:25N 34°41' E 135°11'0 0.0
2017-Mar-20 19:31N 34°41' E 135°11'0 0.0
2017-Mar-20 18:31N 34°41' E 135°11'0 0.0
2017-Mar-20 17:31N 34°41' E 135°11'0 0.0
2017-Mar-20 16:31N 34°41' E 135°11'0 0.0
2017-Mar-20 15:31N 34°41' E 135°11'0 0.0
2017-Mar-20 14:25N 34°41' E 135°11'0 0.0
2017-Mar-20 13:31N 34°41' E 135°11'0 0.0
2017-Mar-20 12:31N 34°41' E 135°11'0 0.0
2017-Mar-20 11:31N 34°41' E 135°11'0 0.0
2017-Mar-20 10:25N 34°41' E 135°11'0 0.0
2017-Mar-20 09:25N 34°41' E 135°11'0 0.0
2017-Mar-20 08:31N 34°41' E 135°11'0 0.0
2017-Mar-20 07:31N 34°41' E 135°11'0 0.1
2017-Mar-20 06:33N 34°41' E 135°11'4 4.1
2017-Mar-20 05:33N 34°37' E 135°10'2 2.1
2017-Mar-20 04:33N 34°35' E 135°09'1 0.8
2017-Mar-20 03:33N 34°34' E 135°09'1 1.4
2017-Mar-20 02:29N 34°33' E 135°08'2 1.7
2017-Mar-20 01:32N 34°31' E 135°08'2 1.7
2017-Mar-20 00:33N 34°30' E 135°07'2 1.6
2017-Mar-19 23:33N 34°28' E 135°06'4 1.7
2017-Mar-19 21:27N 34°25' E 135°05'10 2.0
2017-Mar-19 16:26N 34°16' E 134°59'4 5.0
2017-Mar-19 15:33N 34°12' E 134°60'4 3.2
2017-Mar-19 14:24N 34°08' E 134°59'  

Dump ship's entire track history